Terminal Aerodrome Forecast
Issued by NWS Wilmington, OH

Current Version | Previous Version | Graphics & Text | Print | Product List | Glossary On
Versions: 1 2 3 4 5 6 7 8 9 10 11 12 13 14 15 16 17 18 19 20 21 22 23
000
FTUS41 KILN 272334
TAFCVG
TAF
KCVG 272334Z 2800/2906 06003KT P6SM SCT060
     FM281000 08003KT 5SM BR SCT250
     FM281300 12006KT P6SM SCT250
     FM290000 10004KT P6SM BKN250=

USA.gov is the U.S. government's official web portal to all federal, state and local government web resources and services.